Tiempo atmosférico en la estación meteorológica de Aguilar De Campoo, Palencia (910 m.)



Fecha
DESCASC
Temp. máxima en grados centígrados (hora)
DESCASC
Temp. mínima en grados centígrados (hora)
DESCASC
Temp. media en grados centígrados
DESCASC
Racha de viento máxima en m/sg (hora)
DESCASC
Velocidad máxima media en intervalos de 10 minutos(hora)
DESCASC
Precipitaciones diarias en mm
DESCASC
Precipitaciones de 00:00 a 06:00 en mm
DESCASC
Precipitaciones de 06:00 a 12:00 en mm
DESCASC
Precipitaciones de 12:00 a 18:00 en mm
DESCASC
Precipitaciones de 18:00 a 24:00 en mm
DESCASC
17-09-2020 24.4 (16:20) 15.2 (08:20) 19.8 10 (14:30) 4.44 (12:40) 0.8 0.8 0 0 0
15-09-2020 25.5 (17:00) 11.7 (08:10) 18.6 9.72 (01:30) 4.17 (01:30) 7.2 7.2 0 0 0
14-09-2020 27.3 (17:20) 12.6 (03:20) 19.9 14.44 (21:30) 5.83 (21:40) 8.6 0 0 0 8.6
13-09-2020 31.4 (17:10) 5.3 (00:00) 18.3 7.78 (16:40) 3.61 (15:10) 0 0 0 0 0
12-09-2020 28.3 (16:50) 6.7 (08:10) 17.5 8.33 (17:50) 4.17 (19:00) 0 0 0 0 0
11-09-2020 27.3 (16:20) 7.5 (00:00) 17.4 8.06 (18:10) 4.17 (18:10) 0 0 0 0 0
10-09-2020 26.3 (16:00) 6.5 (00:00) 16.4 8.89 (17:40) 4.72 (18:10) 0 0 0 0 0
09-09-2020 25.5 (15:40) 4.3 (08:10) 14.9 8.61 (16:50) 4.17 (16:30) 0 0 0 0 0
08-09-2020 22.5 (16:30) 6.4 (00:00) 14.5 11.11 (14:30) 5.28 (11:00) 0 0 0 0 0
07-09-2020 17 (14:30) 9.2 (08:00) 13.1 11.67 (14:20) 5.56 (13:00) 0 0 0 0 0
06-09-2020 16.6 (15:30) 11.5 (00:00) 14.1 13.61 (16:40) 8.06 (16:30) 0 0 0 0 0
05-09-2020 20.2 (12:30) 10.5 (00:00) 15.4 13.89 (16:30) 8.61 (16:40) 0 0 0 0 0
04-09-2020 31.1 (17:00) 6.5 (00:00) 18.8 8.06 (19:30) 4.17 (19:30) 0 0 0 0 0
03-09-2020 29.6 (17:50) 8.3 (00:00) 19 8.06 (19:20) 4.72 (19:00) 0 0 0 0 0
02-09-2020 22.7 (16:50) 8 (00:00) 15.4 8.89 (18:50) 4.72 (18:50) 0 0 0 0 0
01-09-2020 21.4 (15:00) 6.2 (00:00) 13.8 10.28 (18:10) 5.56 (17:40) 0 0 0 0 0
31-08-2020 21.6 (17:50) 1.4 (00:00) 11.5 6.94 (16:00) 3.61 (20:10) 0 0 0 0 0
30-08-2020 16 (16:40) 5.4 (00:00) 10.7 9.72 (16:30) 5.83 (16:30) 0 0 0 0 0
29-08-2020 16.9 (15:00) 3.8 (00:00) 10.3 10.56 (16:30) 3.33 (12:10) 2.6 0 0 1.2 1.4
28-08-2020 18.1 (16:00) 10.5 (00:00) 14.3 12.5 (16:10) 6.39 (14:30) 0 0 0 0 0
27-08-2020 30 (16:30) 14.5 (00:00) 22.3 11.11 (18:40) 6.67 (18:20) 0 0 0 0 0
26-08-2020 28.5 (17:00) 11.2 (00:00) 19.8 8.33 (21:30) 5.28 (19:00) 0 0 0 0 0
25-08-2020 31 (17:30) 8.6 (00:00) 19.8 11.67 (19:30) 6.67 (18:50) 0 0 0 0 0
24-08-2020 26.5 (18:10) 13.4 (06:40) 19.9 7.78 (00:10) 4.17 (00:10) 0 0 0 0 0
23-08-2020 22.5 (15:30) 8.2 (00:00) 15.3 8.61 (18:20) 5 (20:10) 0 0 0 0 0
22-08-2020 24 (16:30) 9.7 (00:00) 16.8 10.83 (19:10) 6.39 (19:00) 0 0 0 0 0
21-08-2020 23.7 (18:40) 13.5 (23:59) 18.6 9.72 (16:30) 4.72 (15:40) 1.4 1.4 0 0 0

Gráficas

Temp. máximas Temp. mínimas Temp. medias Precipitaciones Rachas de viento máximas Velocidades máximas media en intervalos de 10 minutos

Datos horarios

Fecha y hora oficial Temperatura (ºC) Velocidad del viento (km/h) Dirección del viento Racha (km/h) Dirección de racha Precipitación (mm) Presión (hPa) Tendencia (hPa) Humedad (%)
2020-09-19 23:00:00 12.4 2 Este 5 Sudeste 0 -- -- 92
2020-09-19 22:00:00 13.6 0 Calma 5 Sudeste 0 -- -- 89
2020-09-19 21:00:00 14.3 0 Calma 8 Sur 0 -- -- 86
2020-09-19 20:00:00 15.7 7 Noroeste 19 Noroeste 0 -- -- 80
2020-09-19 19:00:00 16.4 9 Noroeste 23 Noroeste 0 -- -- 79
2020-09-19 18:00:00 17.7 10 Noroeste 20 Noroeste 0 -- -- 72
2020-09-19 17:00:00 18.3 13 Norte 24 Norte 0 -- -- 62
2020-09-19 16:00:00 18.4 9 Norte 28 Norte 0 -- -- 61
2020-09-19 15:00:00 19.3 10 Norte 31 Norte 0 -- -- 61
2020-09-19 14:00:00 18.6 12 Norte 23 Norte 0 -- -- 69
2020-09-19 13:00:00 16.7 4 Oeste 9 Sudoeste 0 -- -- 78
2020-09-19 12:00:00 15.6 3 Noroeste 11 Noroeste 0 -- -- 83
2020-09-19 11:00:00 13.8 4 Noroeste 9 Noroeste 0 -- -- 92
2020-09-19 10:00:00 12.9 4 Noroeste 8 Noroeste 0.2 -- -- 95
2020-09-19 09:00:00 12.6 4 Noroeste 5 Noroeste 0 -- -- 96
2020-09-19 08:00:00 12.1 2 Norte 5 Este 0 -- -- 95
2020-09-19 07:00:00 11.7 4 Este 10 Noroeste 0 -- -- 94
2020-09-19 06:00:00 12 5 Noroeste 10 Norte 0 -- -- 94
2020-09-19 05:00:00 11.8 4 Noroeste 10 Norte 0 -- -- 95
2020-09-19 04:00:00 12.1 3 Norte 18 Norte 0 -- -- 91
2020-09-19 03:00:00 12.3 7 Norte 15 Norte 0 -- -- 91
2020-09-19 02:00:00 12.5 2 Norte 5 Este 0 -- -- 92
2020-09-19 01:00:00 12.9 3 Noroeste 14 Noroeste 0 -- -- 88
2020-09-19 00:00:00 13.7 2 Nordeste 7 Este 1 -- -- 95
2020-09-18 23:00:00 13.8 0 Calma 9 Este 0.4 -- -- 93
2020-09-18 22:00:00 14 3 Sur 36 Oeste 0.4 -- -- 91
2020-09-18 21:00:00 16 18 Oeste 39 Oeste 0 -- -- 74
2020-09-18 20:00:00 18.5 0 Calma 13 Oeste 0 -- -- 69
2020-09-18 19:00:00 20 6 Norte 16 Oeste 0 -- -- 58
2020-09-18 18:00:00 19.7 8 Oeste 22 Sudoeste 0 -- -- 60
2020-09-18 17:00:00 20.5 5 Oeste 26 Noroeste 0 -- -- 61
2020-09-18 16:00:00 19.1 11 Noroeste 29 Oeste 0 -- -- 64
2020-09-18 15:00:00 18.6 8 Norte 24 Noroeste 0 -- -- 68
2020-09-18 14:00:00 17.9 12 Noroeste 30 Noroeste 0 -- -- 69
2020-09-18 13:00:00 15.8 9 Noroeste 28 Noroeste 0 -- -- 82
2020-09-18 12:00:00 16 13 Noroeste 21 Noroeste 0 -- -- 79
2020-09-18 11:00:00 14.5 2 Norte 20 Norte 0.8 -- -- 86
2020-09-18 10:00:00 13.6 6 Norte 15 Norte 1 -- -- 92
2020-09-18 09:00:00 14.1 4 Noroeste 17 Sudoeste 1.4 -- -- 93
2020-09-18 08:00:00 14.4 10 Oeste 25 Oeste 1.6 -- -- 93
2020-09-18 07:00:00 14.6 4 Oeste 13 Oeste 4.6 -- -- 93
2020-09-18 06:00:00 14.2 3 Este 9 Sudeste 0 -- -- 89
2020-09-18 05:00:00 14.8 4 Este 7 Sudeste 0 -- -- 87
2020-09-18 04:00:00 15.5 3 Sudoeste 17 Sur 0 -- -- 85
2020-09-18 03:00:00 16.3 9 Sur 36 Oeste 0 -- -- 77
2020-09-18 02:00:00 19 17 Oeste 32 Oeste 0 -- -- 58
2020-09-18 01:00:00 20 10 Oeste 25 Oeste 0 -- -- 66
2020-09-18 00:00:00 20.2 8 Oeste 17 Oeste 0 -- -- 65
2020-09-17 23:00:00 19.7 6 Oeste 12 Oeste 0 -- -- 65
2020-09-17 22:00:00 18.9 0 Calma 8 Sudoeste 0 -- -- 77
2020-09-17 21:00:00 20.3 0 Calma 11 Sur 0 -- -- 73
2020-09-17 20:00:00 23 5 Sudoeste 10 Sur 0 -- -- 59
2020-09-17 19:00:00 23.8 2 Oeste 14 Oeste 0 -- -- 55
2020-09-17 18:00:00 24.3 9 Oeste 22 Oeste 0 -- -- 53
2020-09-17 17:00:00 23.8 8 Oeste 24 Oeste 0 -- -- 55
2020-09-17 16:00:00 23.3 9 Oeste 25 Sudoeste 0 -- -- 54
2020-09-17 15:00:00 22.3 13 Oeste 36 Noroeste 0 -- -- 59
2020-09-17 14:00:00 22.2 14 Oeste 31 Noroeste 0 -- -- 58
2020-09-17 13:00:00 22.8 15 Noroeste 31 Oeste 0 -- -- 59
2020-09-17 12:00:00 20.6 6 Sur 10 Sudoeste 0 -- -- 73
2020-09-17 11:00:00 18.6 6 Sur 11 Sudeste 0 -- -- 81
2020-09-17 10:00:00 16.1 5 Este 8 Este 0 -- -- 94
2020-09-17 09:00:00 15.3 3 Este 9 Este 0 -- -- 95
2020-09-17 08:00:00 15.3 7 Este 9 Este 0 -- -- 94
2020-09-17 07:00:00 15.5 2 Sudoeste 10 Este 0 -- -- 94
2020-09-17 06:00:00 15.6 7 Este 10 Este 0 -- -- 94
2020-09-17 05:00:00 16.1 9 Este 14 Este 0.2 -- -- 92
2020-09-17 04:00:00 17.9 11 Sur 21 Sudoeste 0.6 -- -- 83
2020-09-17 03:00:00 19 4 Sur 14 Sur 0 -- -- 76
2020-09-17 02:00:00 18.8 6 Sudeste 12 Sudeste 0 -- -- 75
2020-09-17 01:00:00 19.1 7 Sur 14 Sur 0 -- -- 74
2020-09-17 00:00:00 18.8 5 Sudeste 18 Sudeste 0 -- -- 74
2020-09-16 23:00:00 19.3 10 Sudeste 21 Sudeste 0 -- -- 76
2020-09-16 22:00:00 20.1 9 Sudeste 16 Sudeste 0 -- -- 73
2020-09-16 21:00:00 20.9 6 Sudeste 18 Sur 0 -- -- 71
2020-09-16 20:00:00 22.3 6 Sudeste 16 Este 0 -- -- 58
2020-09-16 19:00:00 24.3 7 Sudeste 15 Este 0 -- -- 45
2020-09-16 18:00:00 26.5 5 Sudoeste 13 Sur 0 -- -- 41
2020-09-16 17:00:00 26.2 4 Sur 12 Sudoeste 0 -- -- 38
2020-09-16 16:00:00 25.6 3 Sudeste 15 Noroeste 0 -- -- 40
2020-09-16 15:00:00 25.2 5 Noroeste 15 Sudoeste 0 -- -- 39
2020-09-16 14:00:00 24.6 9 Oeste 20 Oeste 0 -- -- 42
2020-09-16 13:00:00 23.5 4 Nordeste 9 Oeste 0 -- -- 52
2020-09-16 12:00:00 20.7 3 Noroeste 8 Oeste 0 -- -- 65
2020-09-16 11:00:00 17.7 4 Sudoeste 11 Oeste 0 -- -- 77
2020-09-16 10:00:00 14.7 2 Sur 13 Este 0 -- -- 89
2020-09-16 09:00:00 10.3 3 Este 11 Este 0 -- -- 98
2020-09-16 08:00:00 9.8 7 Este 13 Este 0 -- -- 97
2020-09-16 07:00:00 9.6 0 Calma 8 Este 0 -- -- 95
2020-09-16 06:00:00 10.4 3 Nordeste 8 Este 0 -- -- 95
2020-09-16 05:00:00 11.2 5 Este 12 Este 0 -- -- 94
2020-09-16 04:00:00 12 6 Este 13 Este 0 -- -- 94
2020-09-16 03:00:00 12.4 5 Este 13 Este 0 -- -- 94
2020-09-16 02:00:00 13 3 Este 12 Este 0 -- -- 92
2020-09-16 01:00:00 13.5 7 Este 13 Este 0 -- -- 90
2020-09-16 00:00:00 14.2 9 Este 13 Este 0 -- -- 88
2020-09-15 23:00:00 14.9 3 Nordeste 10 Este 0 -- -- 85
2020-09-15 22:00:00 16.3 6 Este 11 Este 0 -- -- 82
2020-09-15 21:00:00 18.5 2 Sudeste 5 Sudeste 0 -- -- 74
2020-09-15 20:00:00 21.9 0 Calma 17 Noroeste 0 -- -- 67
2020-09-15 19:00:00 23.9 9 Norte 19 Norte 0 -- -- 51
2020-09-15 18:00:00 24.7 10 Noroeste 27 Oeste 0 -- -- 49
2020-09-15 17:00:00 25.5 13 Noroeste 27 Noroeste 0 -- -- 48
2020-09-15 16:00:00 23.8 8 Noroeste 25 Oeste 0 -- -- 54
2020-09-15 15:00:00 24.1 9 Noroeste 23 Oeste 0 -- -- 54
2020-09-15 14:00:00 23.3 8 Oeste 19 Oeste 0 -- -- 59
2020-09-15 13:00:00 21.8 8 Noroeste 18 Oeste 0 -- -- 65
2020-09-15 12:00:00 20 9 Noroeste 18 Oeste 0 -- -- 74
2020-09-15 11:00:00 17.8 4 Norte 11 Norte 0 -- -- 86
2020-09-15 10:00:00 15.6 5 Norte 10 Norte 0 -- -- 93
2020-09-15 09:00:00 12.4 4 Sudeste 9 Este 0 -- -- 98
2020-09-15 08:00:00 11.9 4 Este 13 Este 0 -- -- 97
2020-09-15 07:00:00 12.4 0 Calma 5 Sudeste 0 -- -- 95
2020-09-15 06:00:00 13.5 2 Norte 6 Este 0 -- -- 95
2020-09-15 05:00:00 14.2 2 Norte 6 Sur 0.2 -- -- 95
2020-09-15 04:00:00 14.7 5 Oeste 10 Sur 0.2 -- -- 95
2020-09-15 03:00:00 15 6 Este 13 Este 2.8 -- -- 94
2020-09-15 02:00:00 15.6 7 Noroeste 35 Noroeste 1.4 -- -- 89
2020-09-15 01:00:00 15.3 5 Sudeste 18 Este 2.6 -- -- 93
2020-09-15 00:00:00 15.6 9 Sudoeste 26 Noroeste 3.2 -- -- 92
2020-09-14 23:00:00 15.7 9 Sudeste 21 Norte 2.2 -- -- 92
2020-09-14 22:00:00 17.2 7 Noroeste 52 Sudoeste 3.2 -- -- 81
2020-09-14 21:00:00 19.8 3 Norte 5 Este 0 -- -- 62
2020-09-14 20:00:00 24.8 4 Sudoeste 13 Oeste 0 -- -- 47
2020-09-14 19:00:00 25.9 8 Oeste 31 Oeste 0 -- -- 39
2020-09-14 18:00:00 26.5 11 Oeste 25 Sudoeste 0 -- -- 40
2020-09-14 17:00:00 26.7 11 Noroeste 24 Oeste 0 -- -- 41
2020-09-14 16:00:00 24.5 5 Noroeste 18 Sur 0 -- -- 46
2020-09-14 15:00:00 25.2 6 Noroeste 24 Noroeste 0 -- -- 44
2020-09-14 14:00:00 26.5 10 Noroeste 25 Noroeste 0 -- -- 41
2020-09-14 13:00:00 26 10 Oeste 22 Norte 0 -- -- 43
2020-09-14 12:00:00 24.4 12 Noroeste 23 Noroeste 0 -- -- 46
2020-09-14 11:00:00 22.3 6 Noroeste 15 Noroeste 0 -- -- 51
2020-09-14 10:00:00 18.4 4 Noroeste 8 Noroeste 0 -- -- 68
2020-09-14 09:00:00 13.2 6 Sudeste 15 Este 0 -- -- 79
2020-09-14 08:00:00 12.8 3 Este 10 Sudeste 0 -- -- 80
2020-09-14 07:00:00 12.9 3 Este 6 Este 0 -- -- 81
2020-09-14 06:00:00 14.3 4 Este 9 Este 0 -- -- 77
2020-09-14 05:00:00 14.5 0 Calma 14 Este 0 -- -- 78
2020-09-14 04:00:00 13 11 Este 18 Este 0 -- -- 77
2020-09-14 03:00:00 13.1 3 Sudeste 13 Este 0 -- -- 74
2020-09-14 02:00:00 14.4 9 Este 13 Este 0 -- -- 72
2020-09-14 01:00:00 15 6 Este 15 Este 0 -- -- 66
2020-09-14 00:00:00 15.3 6 Este 12 Este 0 -- -- 67
2020-09-13 23:00:00 16.1 2 Este 9 Este 0 -- -- 67
2020-09-13 22:00:00 18.8 2 Norte 12 Este 0 -- -- 61
2020-09-13 21:00:00 21 0 Calma 5 Nordeste 0 -- -- 57
2020-09-13 20:00:00 26.4 0 Calma 17 Noroeste 0 -- -- 44
2020-09-13 19:00:00 30.2 8 Noroeste 22 Norte 0 -- -- 30
2020-09-13 18:00:00 31.4 10 Noroeste 26 Noroeste 0 -- -- 28
2020-09-13 17:00:00 31.3 11 Noroeste 28 Noroeste 0 -- -- 28
2020-09-13 16:00:00 30.9 11 Noroeste 26 Oeste 0 -- -- 29
2020-09-13 15:00:00 30 6 Oeste 23 Oeste 0 -- -- 33
2020-09-13 14:00:00 28.6 12 Norte 23 Norte 0 -- -- 33
2020-09-13 13:00:00 26.4 10 Oeste 16 Sudoeste 0 -- -- 39
2020-09-13 12:00:00 23.7 8 Oeste 15 Noroeste 0 -- -- 46
2020-09-13 11:00:00 19.3 8 Noroeste 10 Norte 0 -- -- 53
2020-09-13 10:00:00 13.2 0 Calma 5 Sudeste 0 -- -- 70
2020-09-13 09:00:00 7 0 Calma 5 Nordeste 0 -- -- 91
2020-09-13 08:00:00 5.4 0 Calma 4 Este 0 -- -- 92
2020-09-13 07:00:00 5.9 0 Calma 4 Sudeste 0 -- -- 91
2020-09-13 06:00:00 6.7 0 Calma 11 Este 0 -- -- 87
2020-09-13 05:00:00 8.1 2 Norte 15 Este 0 -- -- 84
2020-09-13 04:00:00 9.1 0 Calma 17 Este 0 -- -- 82
2020-09-13 03:00:00 10 9 Este 15 Este 0 -- -- 81
2020-09-13 02:00:00 11.1 8 Este 15 Este 0 -- -- 78
2020-09-13 01:00:00 12.2 3 Este 12 Sudeste 0 -- -- 81
2020-09-13 00:00:00 13.8 0 Calma 3 Sudoeste 0 -- -- 79
2020-09-12 23:00:00 16.2 0 Calma 10 Sudeste 0 -- -- 74
2020-09-12 22:00:00 19.1 6 Sudeste 15 Sudeste 0 -- -- 66
2020-09-12 21:00:00 21.1 6 Sudeste 12 Sudeste 0 -- -- 63
2020-09-12 20:00:00 24.2 6 Sudeste 24 Sur 0 -- -- 49
2020-09-12 19:00:00 26.2 15 Sur 27 Sudeste 0 -- -- 30
2020-09-12 18:00:00 27.5 12 Sur 30 Sudeste 0 -- -- 30
2020-09-12 17:00:00 28.3 8 Sudeste 18 Sur 0 -- -- 26
2020-09-12 16:00:00 28 9 Norte 15 Norte 0 -- -- 28
2020-09-12 15:00:00 27.5 5 Sudoeste 14 Sur 0 -- -- 30
2020-09-12 14:00:00 25.6 7 Sur 15 Sudoeste 0 -- -- 37
2020-09-12 13:00:00 23.4 11 Sudoeste 21 Sudoeste 0 -- -- 38
2020-09-12 12:00:00 20.8 8 Sur 18 Sur 0 -- -- 56
2020-09-12 11:00:00 16.5 6 Noroeste 10 Noroeste 0 -- -- 68
2020-09-12 10:00:00 12.5 2 Sudeste 15 Este 0 -- -- 79
2020-09-12 09:00:00 8 7 Este 15 Este 0 -- -- 91
2020-09-12 08:00:00 6.9 3 Este 14 Este 0 -- -- 93
2020-09-12 07:00:00 7.2 2 Nordeste 10 Este 0 -- -- 94
2020-09-12 06:00:00 7.9 5 Este 12 Este 0 -- -- 94
2020-09-12 05:00:00 8.6 10 Este 17 Este 0 -- -- 93
2020-09-12 04:00:00 9.8 4 Este 12 Este 0 -- -- 91
2020-09-12 03:00:00 10.4 3 Este 15 Este 0 -- -- 91
2020-09-12 02:00:00 11.7 7 Este 15 Este 0 -- -- 89
2020-09-12 01:00:00 13 0 Calma 8 Este 0 -- -- 89
2020-09-12 00:00:00 14.5 2 Sudeste 7 Sudoeste 0 -- -- 90
2020-09-11 23:00:00 16.2 5 Sur 13 Sudeste 0 -- -- 88
2020-09-11 22:00:00 17.8 4 Sur 21 Sur 0 -- -- 83
2020-09-11 21:00:00 19.3 13 Sudeste 22 Sudeste 0 -- -- 78
2020-09-11 20:00:00 22.4 11 Sur 27 Sudeste 0 -- -- 57
2020-09-11 19:00:00 24.8 13 Sur 29 Sur 0 -- -- 53
2020-09-11 18:00:00 26.5 14 Sur 28 Sudeste 0 -- -- 36
2020-09-11 17:00:00 27.2 9 Sudeste 28 Sur 0 -- -- 30
2020-09-11 16:00:00 27.1 7 Sudoeste 16 Sur 0 -- -- 31
2020-09-11 15:00:00 25.9 7 Oeste 14 Noroeste 0 -- -- 36
2020-09-11 14:00:00 24 5 Sudoeste 14 Sudoeste 0 -- -- 44
2020-09-11 13:00:00 22.1 7 Sudeste 17 Sur 0 -- -- 54
2020-09-11 12:00:00 20.4 6 Sur 14 Sur 0 -- -- 63
2020-09-11 11:00:00 17.5 5 Noroeste 12 Norte 0 -- -- 73
2020-09-11 10:00:00 14.1 3 Sudeste 9 Este 0 -- -- 82
2020-09-11 09:00:00 8.5 8 Este 18 Sudeste 0 -- -- 94
2020-09-11 08:00:00 7.5 3 Este 15 Este 0 -- -- 94
2020-09-11 07:00:00 8.2 12 Este 16 Este 0 -- -- 95
2020-09-11 06:00:00 8.5 11 Este 16 Este 0 -- -- 95
2020-09-11 05:00:00 9 13 Este 19 Este 0 -- -- 93
2020-09-11 04:00:00 10.4 8 Este 12 Este 0 -- -- 92
2020-09-11 03:00:00 11.6 5 Este 8 Este 0 -- -- 90
2020-09-11 02:00:00 13 4 Sudeste 12 Sur 0 -- -- 88
2020-09-11 01:00:00 14 5 Sudeste 13 Sudeste 0 -- -- 88
2020-09-11 00:00:00 15.3 8 Sur 20 Sur 0 -- -- 84
2020-09-10 23:00:00 16.5 9 Sur 26 Sur 0 -- -- 80
2020-09-10 22:00:00 16.3 14 Sur 24 Sudeste 0 -- -- 80
2020-09-10 21:00:00 18.3 13 Sur 26 Sudeste 0 -- -- 69
2020-09-10 20:00:00 21 12 Sur 27 Sur 0 -- -- 58
2020-09-10 19:00:00 23 11 Sur 32 Sudeste 0 -- -- 53
2020-09-10 18:00:00 24.3 15 Sudeste 32 Sur 0 -- -- 48
2020-09-10 17:00:00 25.3 13 Sudeste 28 Sur 0 -- -- 46
2020-09-10 16:00:00 26.3 4 Este 18 Sudoeste 0 -- -- 39
2020-09-10 15:00:00 25.5 8 Sudoeste 16 Sudoeste 0 -- -- 37
2020-09-10 14:00:00 24.1 6 Oeste 15 Noroeste 0 -- -- 44
2020-09-10 13:00:00 22.6 10 Sudoeste 22 Sur 0 -- -- 49
2020-09-10 12:00:00 20.5 7 Sudoeste 13 Sur 0 -- -- 55
2020-09-10 11:00:00 17.3 6 Sudoeste 10 Noroeste 0 -- -- 63
2020-09-10 10:00:00 13.6 0 Calma 6 Sudeste 0 -- -- 78
2020-09-10 09:00:00 8.4 6 Este 12 Este 0 -- -- 88
2020-09-10 08:00:00 6.5 0 Calma 10 Este 0 -- -- 90
2020-09-10 07:00:00 7.5 5 Este 15 Este 0 -- -- 90
2020-09-10 06:00:00 8 4 Este 15 Este 0 -- -- 90
2020-09-10 05:00:00 8.9 6 Este 12 Este 0 -- -- 87
2020-09-10 04:00:00 9.5 7 Este 13 Este 0 -- -- 87
2020-09-10 03:00:00 10.4 2 Sudeste 13 Este 0 -- -- 82
2020-09-10 02:00:00 13 4 Este 21 Sudeste 0 -- -- 78
2020-09-10 01:00:00 12.8 9 Sudeste 13 Sudeste 0 -- -- 81
2020-09-10 00:00:00 13.7 4 Sudeste 15 Sur 0 -- -- 84
2020-09-09 23:00:00 15.1 8 Sur 18 Sur 0 -- -- 85
2020-09-09 22:00:00 16.3 10 Sudeste 21 Sur 0 -- -- 77
2020-09-09 21:00:00 17.9 9 Sudeste 22 Sur 0 -- -- 71
2020-09-09 20:00:00 20.3 12 Sur 26 Sur 0 -- -- 56
2020-09-09 19:00:00 22.7 12 Sudeste 29 Sudeste 0 -- -- 49
2020-09-09 18:00:00 24.3 13 Sudeste 29 Sudeste 0 -- -- 38
2020-09-09 17:00:00 24.9 13 Sudeste 31 Sur 0 -- -- 41
2020-09-09 16:00:00 25 14 Sudeste 29 Sudeste 0 -- -- 38
2020-09-09 15:00:00 25.3 5 Sur 24 Sur 0 -- -- 35
2020-09-09 14:00:00 24.5 10 Sudoeste 24 Sudoeste 0 -- -- 38
2020-09-09 13:00:00 22.8 8 Sudoeste 15 Sudoeste 0 -- -- 40
2020-09-09 12:00:00 20.7 6 Oeste 10 Noroeste 0 -- -- 44
2020-09-09 11:00:00 17.2 6 Norte 9 Noroeste 0 -- -- 53
2020-09-09 10:00:00 12.5 2 Oeste 10 Sudeste 0 -- -- 75
2020-09-09 09:00:00 6.8 6 Este 10 Este 0 -- -- 90
2020-09-09 08:00:00 4.4 4 Sudeste 10 Sudeste 0 -- -- 93
2020-09-09 07:00:00 5.3 4 Este 12 Este 0 -- -- 92
2020-09-09 06:00:00 6.1 8 Este 15 Este 0 -- -- 87
2020-09-09 05:00:00 6.3 6 Sudeste 13 Este 0 -- -- 87
2020-09-09 04:00:00 7.3 10 Este 15 Este 0 -- -- 87
2020-09-09 03:00:00 7.9 7 Este 15 Este 0 -- -- 85
2020-09-09 02:00:00 8.6 7 Este 15 Este 0 -- -- 83
2020-09-09 01:00:00 9.9 10 Este 14 Este 0 -- -- 79
2020-09-09 00:00:00 11.5 4 Este 7 Este 0 -- -- 82
2020-09-08 23:00:00 12.7 2 Sudeste 8 Sudeste 0 -- -- 77
2020-09-08 22:00:00 15.3 2 Sur 19 Sudeste 0 -- -- 68
2020-09-08 21:00:00 17.4 11 Sudeste 15 Sudeste 0 -- -- 60
2020-09-08 20:00:00 20 6 Sudeste 18 Este 0 -- -- 50
2020-09-08 19:00:00 21.3 10 Sudeste 23 Este 0 -- -- 46
2020-09-08 18:00:00 22 10 Sudeste 24 Sur 0 -- -- 45
2020-09-08 17:00:00 22.3 8 Sudeste 29 Sudeste 0 -- -- 43
2020-09-08 16:00:00 22 10 Sur 27 Sudeste 0 -- -- 41
2020-09-08 15:00:00 21.2 13 Sur 40 Sur 0 -- -- 46
2020-09-08 14:00:00 20.1 13 Sur 28 Sur 0 -- -- 44
2020-09-08 13:00:00 18.2 15 Sur 35 Sur 0 -- -- 48
2020-09-08 12:00:00 16.6 17 Sur 30 Sudeste 0 -- -- 54
2020-09-08 11:00:00 15.1 19 Sur 34 Sudeste 0 -- -- 61
2020-09-08 10:00:00 13.9 11 Sudeste 22 Sur 0 -- -- 71
2020-09-08 09:00:00 10.4 7 Sudeste 12 Este 0 -- -- 90
2020-09-08 08:00:00 9.1 3 Sudeste 8 Sudeste 0 -- -- 94
2020-09-08 07:00:00 7.7 2 Norte 6 Noroeste 0 -- -- 93
2020-09-08 06:00:00 6.6 2 Nordeste 14 Sudeste 0 -- -- 91
2020-09-08 05:00:00 7 3 Este 10 Sudeste 0 -- -- 89
2020-09-08 04:00:00 8 6 Sudeste 19 Este 0 -- -- 87
2020-09-08 03:00:00 7.9 11 Sudeste 18 Sudeste 0 -- -- 88
2020-09-08 02:00:00 8.4 8 Sudeste 21 Sudeste 0 -- -- 88
2020-09-08 01:00:00 9 6 Sudeste 18 Sur 0 -- -- 88
2020-09-08 00:00:00 9.3 8 Sudeste 16 Sudeste 0 -- -- 81
2020-09-07 23:00:00 10 8 Sudeste 21 Sudeste 0 -- -- 78
2020-09-07 22:00:00 10.8 10 Sudeste 23 Sur 0 -- -- 81
2020-09-07 21:00:00 11.8 10 Sudeste 29 Sudeste 0 -- -- 81
2020-09-07 20:00:00 14 13 Sudeste 31 Sudeste 0 -- -- 71
2020-09-07 19:00:00 15.7 17 Sur 34 Sudeste 0 -- -- 65
2020-09-07 18:00:00 16.9 14 Sudeste 39 Sudeste 0 -- -- 58
2020-09-07 17:00:00 16.1 16 Sur 36 Sudeste 0 -- -- 65
2020-09-07 16:00:00 16.4 15 Sudeste 33 Sudeste 0 -- -- 63
2020-09-07 15:00:00 16.4 18 Sudeste 42 Sur 0 -- -- 64
2020-09-07 14:00:00 15.2 15 Sudeste 34 Sur 0 -- -- 67
2020-09-07 13:00:00 16.7 20 Sur 41 Sur 0 -- -- 55
2020-09-07 12:00:00 15.2 17 Sur 39 Sur 0 -- -- 66
2020-09-07 11:00:00 13.6 15 Sur 28 Sur 0 -- -- 71
2020-09-07 10:00:00 11.5 6 Sur 30 Este 0 -- -- 83
2020-09-07 09:00:00 10.2 6 Sur 22 Sur 0 -- -- 88
2020-09-07 08:00:00 9.2 4 Oeste 12 Sudeste 0 -- -- 87
2020-09-07 07:00:00 10.2 7 Sudeste 21 Sur 0 -- -- 88
2020-09-07 06:00:00 10.6 9 Sudeste 23 Sudeste 0 -- -- 90
2020-09-07 05:00:00 10.9 9 Sur 23 Sur 0 -- -- 90
2020-09-07 04:00:00 10.9 9 Sur 21 Sudeste 0 -- -- 92
2020-09-07 03:00:00 11.2 10 Sur 28 Sudeste 0 -- -- 90
2020-09-07 02:00:00 11.6 13 Sudeste 27 Sudeste 0 -- -- 88
2020-09-07 01:00:00 11.6 16 Sudeste 29 Sudeste 0 -- -- 87
2020-09-07 00:00:00 11.5 15 Sur 26 Sur 0 -- -- 86
2020-09-06 23:00:00 11.7 12 Sur 24 Sur 0 -- -- 82
2020-09-06 22:00:00 11.9 9 Sur 24 Sur 0 -- -- 78
2020-09-06 21:00:00 12.5 13 Sudeste 26 Sudeste 0 -- -- 72
2020-09-06 20:00:00 13.6 19 Sur 42 Sur 0 -- -- 70
2020-09-06 19:00:00 14.6 25 Sur 49 Sudeste 0 -- -- 70
2020-09-06 18:00:00 15.4 26 Sur 46 Sur 0 -- -- 71
2020-09-06 17:00:00 16.2 25 Sur 49 Sur 0 -- -- 67
2020-09-06 16:00:00 16.4 26 Sur 47 Sur 0 -- -- 66
2020-09-06 15:00:00 16.2 28 Sur 48 Sur 0 -- -- 69
2020-09-06 14:00:00 15.9 23 Sur 42 Sudeste 0 -- -- 71
2020-09-06 13:00:00 15.6 22 Sur 43 Sur 0 -- -- 73
2020-09-06 12:00:00 14.3 19 Sur 39 Sur 0 -- -- 79
2020-09-06 11:00:00 13.8 19 Sur 34 Sudeste 0 -- -- 80
2020-09-06 10:00:00 12.5 16 Sur 37 Sur 0 -- -- 88
2020-09-06 09:00:00 12.2 17 Sur 29 Sudeste 0 -- -- 90
2020-09-06 08:00:00 11.6 12 Sur 22 Sudeste 0 -- -- 95
2020-09-06 07:00:00 11.9 12 Sur 25 Sur 0 -- -- 95
2020-09-06 06:00:00 12.3 12 Sur 24 Sur 0 -- -- 94
2020-09-06 05:00:00 12.4 9 Sur 24 Sudeste 0 -- -- 95
2020-09-06 04:00:00 12.7 13 Sur 27 Sur 0 -- -- 94
2020-09-06 03:00:00 13.1 13 Sur 35 Sur 0 -- -- 94
2020-09-06 02:00:00 13.3 15 Sur 28 Sudeste 0 -- -- 93
2020-09-06 01:00:00 13.4 18 Sur 32 Sudeste 0 -- -- 92
2020-09-06 00:00:00 13.5 15 Sur 35 Sur 0 -- -- 92
2020-09-05 23:00:00 13.7 16 Sur 33 Sur 0 -- -- 92
2020-09-05 22:00:00 14.2 15 Sur 33 Sudeste 0 -- -- 91
2020-09-05 21:00:00 14.6 15 Sur 32 Sur 0 -- -- 89
2020-09-05 20:00:00 15.4 21 Sur 36 Sur 0 -- -- 86
2020-09-05 19:00:00 16.7 21 Sur 44 Sur 0 -- -- 79
2020-09-05 18:00:00 17.7 24 Sur 47 Sudeste 0 -- -- 76
2020-09-05 17:00:00 18.1 26 Sur 50 Sur 0 -- -- 75
2020-09-05 16:00:00 19.5 24 Sur 45 Sudeste 0 -- -- 70
2020-09-05 15:00:00 19.7 23 Sur 48 Sur 0 -- -- 72
2020-09-05 14:00:00 20 23 Sur 42 Sur 0 -- -- 70
2020-09-05 13:00:00 19.8 21 Sur 40 Sudeste 0 -- -- 71
2020-09-05 12:00:00 19.5 19 Sur 37 Sur 0 -- -- 72
2020-09-05 11:00:00 19.2 15 Sur 33 Sudeste 0 -- -- 75
2020-09-05 10:00:00 18 13 Sur 23 Sur 0 -- -- 78
2020-09-05 09:00:00 12.5 7 Este 13 Este 0 -- -- 88
2020-09-05 08:00:00 12.9 9 Este 23 Sur 0 -- -- 85
2020-09-05 07:00:00 14.3 9 Sur 27 Sur 0 -- -- 93
2020-09-05 06:00:00 13.7 12 Sur 24 Sudeste 0 -- -- 97
2020-09-05 05:00:00 10.8 8 Este 15 Este 0 -- -- 83
2020-09-05 04:00:00 10.7 4 Este 11 Sudeste 0 -- -- 84
2020-09-05 03:00:00 11.6 2 Este 8 Sudeste 0 -- -- 79
2020-09-05 02:00:00 12.8 2 Nordeste 16 Este 0 -- -- 73
2020-09-05 01:00:00 13.3 0 Calma 2 Nordeste 0 -- -- 73
2020-09-05 00:00:00 14.8 0 Calma 4 Nordeste 0 -- -- 69
2020-09-04 23:00:00 16.5 2 Norte 9 Sudeste 0 -- -- 64
2020-09-04 22:00:00 18.5 3 Sudeste 8 Sur 0 -- -- 57
2020-09-04 21:00:00 22.7 3 Sur 24 Sur 0 -- -- 48
2020-09-04 20:00:00 26.2 14 Sur 29 Sur 0 -- -- 39
2020-09-04 19:00:00 30.1 5 Norte 16 Noroeste 0 -- -- 27
2020-09-04 18:00:00 31 7 Noroeste 21 Noroeste 0 -- -- 25
2020-09-04 17:00:00 31.1 10 Noroeste 25 Norte 0 -- -- 23
2020-09-04 16:00:00 30.8 11 Oeste 27 Noroeste 0 -- -- 24
2020-09-04 15:00:00 30 9 Norte 22 Oeste 0 -- -- 27
2020-09-04 14:00:00 29.2 8 Noroeste 19 Sudoeste 0 -- -- 27
2020-09-04 13:00:00 26.7 6 Oeste 15 Oeste 0 -- -- 33
2020-09-04 12:00:00 23.6 5 Noroeste 12 Noroeste 0 -- -- 42
2020-09-04 11:00:00 20.1 8 Norte 12 Norte 0 -- -- 55
2020-09-04 10:00:00 15.2 2 Oeste 5 Sudeste 0 -- -- 76
2020-09-04 09:00:00 8.6 2 Sudeste 5 Este 0 -- -- 93
2020-09-04 08:00:00 6.5 0 Calma 3 Sudeste 0 -- -- 93
2020-09-04 07:00:00 7.1 0 Calma 3 Norte 0 -- -- 92
2020-09-04 06:00:00 7.8 2 Norte 7 Sudeste 0 -- -- 91
2020-09-04 05:00:00 9 0 Calma 11 Este 0 -- -- 88
2020-09-04 04:00:00 10.3 4 Este 15 Este 0 -- -- 89
2020-09-04 03:00:00 11.1 5 Este 14 Este 0 -- -- 89
2020-09-04 02:00:00 12.3 7 Este 13 Este 0 -- -- 84
2020-09-04 01:00:00 13.3 8 Este 14 Este 0 -- -- 82
2020-09-04 00:00:00 14.6 5 Este 11 Este 0 -- -- 77
2020-09-03 23:00:00 16.4 0 Calma 12 Sur 0 -- -- 73
2020-09-03 22:00:00 19.7 10 Sur 20 Sur 0 -- -- 62
2020-09-03 21:00:00 21.3 12 Sur 24 Sur 0 -- -- 58
2020-09-03 20:00:00 24.4 15 Sur 29 Sur 0 -- -- 48
2020-09-03 19:00:00 26.7 17 Sur 26 Sudeste 0 -- -- 41
2020-09-03 18:00:00 29.6 5 Oeste 10 Sudoeste 0 -- -- 25
2020-09-03 17:00:00 29 7 Sudoeste 15 Sudoeste 0 -- -- 28
2020-09-03 16:00:00 28.6 6 Noroeste 15 Noroeste 0 -- -- 30
2020-09-03 15:00:00 27.8 7 Noroeste 19 Oeste 0 -- -- 30
2020-09-03 14:00:00 26.1 8 Oeste 17 Oeste 0 -- -- 36
2020-09-03 13:00:00 23.6 8 Norte 15 Oeste 0 -- -- 51
2020-09-03 12:00:00 20.4 4 Oeste 12 Oeste 0 -- -- 65
2020-09-03 11:00:00 16.4 3 Sudoeste 9 Norte 0 -- -- 79
2020-09-03 10:00:00 12.6 2 Sudoeste 6 Noroeste 0 -- -- 100
2020-09-03 09:00:00 9.5 0 Calma 11 Este 0 -- -- 100
2020-09-03 08:00:00 8.4 7 Este 12 Este 0 -- -- 99
2020-09-03 07:00:00 8.7 4 Este 9 Este 0 -- -- 98
2020-09-03 06:00:00 9.2 0 Calma 12 Este 0 -- -- 99
2020-09-03 05:00:00 8.6 4 Este 12 Este 0 -- -- 97
2020-09-03 04:00:00 8.9 10 Este 13 Este 0 -- -- 95
2020-09-03 03:00:00 9.7 5 Nordeste 13 Este 0 -- -- 95
2020-09-03 02:00:00 10.7 0 Calma 9 Sudeste 0 -- -- 92
2020-09-03 01:00:00 12.1 0 Calma 10 Sudeste 0 -- -- 90
2020-09-03 00:00:00 13.2 8 Sudeste 13 Sur 0 -- -- 89
2020-09-02 23:00:00 14.5 6 Sur 19 Sur 0 -- -- 87
2020-09-02 22:00:00 15.5 10 Sur 19 Sur 0 -- -- 83
2020-09-02 21:00:00 16.6 10 Sur 28 Sur 0 -- -- 80
2020-09-02 20:00:00 18.5 15 Sur 28 Sudoeste 0 -- -- 72
2020-09-02 19:00:00 20.5 15 Sur 32 Sudeste 0 -- -- 64
2020-09-02 18:00:00 21.8 17 Sur 29 Sur 0 -- -- 56
2020-09-02 17:00:00 22.5 11 Sur 25 Sur 0 -- -- 53
2020-09-02 16:00:00 22.3 14 Sur 27 Sur 0 -- -- 48
2020-09-02 15:00:00 21.5 10 Sur 23 Sudeste 0 -- -- 48
2020-09-02 14:00:00 20.3 10 Sudeste 29 Sudoeste 0 -- -- 54
2020-09-02 13:00:00 19 12 Sur 25 Sudeste 0 -- -- 59
2020-09-02 12:00:00 17.4 9 Sur 23 Sudeste 0 -- -- 65
2020-09-02 11:00:00 15.7 10 Sur 24 Sur 0 -- -- 70
2020-09-02 10:00:00 12.9 6 Sudeste 11 Este 0 -- -- 85
2020-09-02 09:00:00 8.9 9 Este 13 Este 0 -- -- 92
2020-09-02 08:00:00 8.4 3 Este 6 Este 0 -- -- 95
2020-09-02 07:00:00 9.4 6 Sudeste 12 Sur 0 -- -- 96
2020-09-02 06:00:00 9.4 4 Sudeste 12 Sudeste 0 -- -- 94
2020-09-02 05:00:00 10 6 Sudeste 15 Sur 0 -- -- 94
2020-09-02 04:00:00 10.5 6 Sur 13 Sur 0 -- -- 94
2020-09-02 03:00:00 10.7 5 Sudeste 16 Sudeste 0 -- -- 91
2020-09-02 02:00:00 11.5 7 Sur 26 Sur 0 -- -- 90
2020-09-02 01:00:00 11.8 11 Sudeste 25 Sudeste 0 -- -- 89
2020-09-02 00:00:00 12.2 10 Sur 22 Sur 0 -- -- 85
2020-09-01 23:00:00 12.6 11 Sur 23 Sur 0 -- -- 87
2020-09-01 22:00:00 13.2 11 Sur 24 Sur 0 -- -- 85
2020-09-01 21:00:00 14 11 Sudeste 25 Sudeste 0 -- -- 82
2020-09-01 20:00:00 16.3 13 Sudeste 33 Sudeste 0 -- -- 73
2020-09-01 19:00:00 18.2 13 Sudeste 37 Sur 0 -- -- 65
2020-09-01 18:00:00 19.5 18 Sur 34 Sur 0 -- -- 61
2020-09-01 17:00:00 20.6 19 Sur 36 Sur 0 -- -- 54
2020-09-01 16:00:00 20.9 15 Sur 32 Sur 0 -- -- 49
2020-09-01 15:00:00 21.4 15 Sur 35 Sudeste 0 -- -- 47
2020-09-01 14:00:00 20.7 12 Sudeste 28 Sur 0 -- -- 45
2020-09-01 13:00:00 19.9 13 Sur 25 Sur 0 -- -- 50
2020-09-01 12:00:00 18.5 7 Sudoeste 12 Sudoeste 0 -- -- 50
2020-09-01 11:00:00 15.4 5 Sudoeste 9 Sudoeste 0 -- -- 62
2020-09-01 10:00:00 12.9 2 Sur 6 Sudeste 0 -- -- 82
2020-09-01 09:00:00 8.7 2 Sur 10 Este 0 -- -- 94
2020-09-01 08:00:00 6.2 0 Calma 10 Este 0 -- -- 93
2020-09-01 07:00:00 6.8 5 Este 10 Este 0 -- -- 93
2020-09-01 06:00:00 7.6 8 Este 14 Este 0 -- -- 90
2020-09-01 05:00:00 7.6 6 Este 13 Este 0 -- -- 92
2020-09-01 04:00:00 7.7 4 Nordeste 9 Este 0 -- -- 91
2020-09-01 03:00:00 8.3 5 Este 12 Este 0 -- -- 89
2020-09-01 02:00:00 8.8 3 Nordeste 16 Este 0 -- -- 89
2020-09-01 01:00:00 10 0 Calma 10 Este 0 -- -- 83
2020-09-01 00:00:00 11.2 2 Este 6 Sudeste 0 -- -- 78
2020-08-31 23:00:00 13.7 3 Sudeste 19 Sudeste 0 -- -- 70
2020-08-31 22:00:00 14.6 5 Sudeste 12 Sur 0 -- -- 68
2020-08-31 21:00:00 15.8 9 Sur 23 Sur 0 -- -- 63
2020-08-31 20:00:00 17.4 13 Sur 21 Sur 0 -- -- 57
2020-08-31 19:00:00 20.1 4 Noroeste 14 Noroeste 0 -- -- 43
2020-08-31 18:00:00 21.5 6 Oeste 19 Noroeste 0 -- -- 36
2020-08-31 17:00:00 21.5 8 Noroeste 15 Sudoeste 0 -- -- 38
2020-08-31 16:00:00 20.7 9 Noroeste 25 Noroeste 0 -- -- 39
2020-08-31 15:00:00 20.2 10 Noroeste 24 Noroeste 0 -- -- 41
2020-08-31 14:00:00 18.4 9 Noroeste 20 Noroeste 0 -- -- 51
2020-08-31 13:00:00 17.4 8 Norte 21 Norte 0 -- -- 52
2020-08-31 12:00:00 14.9 8 Norte 21 Noroeste 0 -- -- 65
2020-08-31 11:00:00 12 3 Sudoeste 10 Sudoeste 0 -- -- 74
2020-08-31 10:00:00 9.2 2 Sudoeste 6 Sudeste 0 -- -- 87
2020-08-31 09:00:00 4.1 2 Sudeste 10 Este 0 -- -- 97
2020-08-31 08:00:00 1.6 6 Este 12 Este 0 -- -- 96
2020-08-31 07:00:00 2.1 7 Este 12 Este 0 -- -- 96
2020-08-31 06:00:00 2.7 7 Este 11 Este 0 -- -- 96
2020-08-31 05:00:00 3 7 Este 14 Este 0 -- -- 95
2020-08-31 04:00:00 3.6 8 Este 15 Este 0 -- -- 95
2020-08-31 03:00:00 4.1 7 Este 15 Este 0 -- -- 94
2020-08-31 02:00:00 5.5 3 Norte 6 Este 0 -- -- 92
2020-08-31 01:00:00 7 2 Sur 12 Sudeste 0 -- -- 90
2020-08-31 00:00:00 7.9 6 Sudeste 14 Sur 0 -- -- 90
2020-08-30 23:00:00 8.6 7 Sur 21 Sur 0 -- -- 89
2020-08-30 22:00:00 9.2 13 Sur 29 Sur 0 -- -- 86
2020-08-30 21:00:00 10.2 17 Sur 33 Sur 0 -- -- 80
2020-08-30 20:00:00 11.9 18 Sur 34 Sur 0 -- -- 75
2020-08-30 19:00:00 13.3 19 Sur 33 Sur 0 -- -- 67
2020-08-30 18:00:00 14.5 18 Sur 32 Sur 0 -- -- 58
2020-08-30 17:00:00 16 17 Sur 35 Sudeste 0 -- -- 53
2020-08-30 16:00:00 15.9 18 Sur 29 Sudeste 0 -- -- 54
2020-08-30 15:00:00 15.4 16 Sur 32 Sur 0 -- -- 58
2020-08-30 14:00:00 14.4 5 Este 23 Sudeste 0 -- -- 57
2020-08-30 13:00:00 14.1 4 Este 20 Este 0 -- -- 57
2020-08-30 12:00:00 11.9 4 Sudeste 16 Norte 0 -- -- 68
2020-08-30 11:00:00 12.5 8 Sudeste 17 Sudeste 0 -- -- 67
2020-08-30 10:00:00 10.8 3 Sur 9 Sur 0 -- -- 80
2020-08-30 09:00:00 8 0 Calma 4 Sur 0 -- -- 98
2020-08-30 08:00:00 6.6 0 Calma 6 Sudeste 0 -- -- 98
2020-08-30 07:00:00 6 2 Nordeste 13 Este 0 -- -- 97
2020-08-30 06:00:00 5.5 3 Sudeste 8 Sudeste 0 -- -- 96
2020-08-30 05:00:00 6.2 2 Este 11 Este 0 -- -- 95
2020-08-30 04:00:00 7 5 Este 9 Sudeste 0 -- -- 94
2020-08-30 03:00:00 6.7 3 Este 5 Sudeste 0 -- -- 95
2020-08-30 02:00:00 6.3 0 Calma 6 Este 0 -- -- 95
2020-08-30 01:00:00 6.6 4 Norte 9 Este 0 -- -- 94
2020-08-30 00:00:00 6.4 3 Este 9 Este 0 -- -- 93
2020-08-29 23:00:00 7.2 3 Sudeste 9 Este 0.2 -- -- 90
2020-08-29 22:00:00 9 7 Sudeste 15 Sudeste 0 -- -- 84
2020-08-29 21:00:00 9.5 4 Este 17 Sudeste 0 -- -- 81
2020-08-29 20:00:00 11.1 9 Sur 23 Sudeste 0 -- -- 81
2020-08-29 19:00:00 12 2 Nordeste 6 Este 1.2 -- -- 86
2020-08-29 18:00:00 12.3 4 Este 23 Norte 1.2 -- -- 81
2020-08-29 17:00:00 15.6 12 Norte 38 Norte 0 -- -- 61
2020-08-29 16:00:00 15.9 11 Norte 25 Norte 0 -- -- 62
2020-08-29 15:00:00 16.9 11 Norte 30 Norte 0 -- -- 58
2020-08-29 14:00:00 15.4 8 Nordeste 26 Nordeste 0 -- -- 61
2020-08-29 13:00:00 15.9 8 Norte 27 Este 0 -- -- 56
2020-08-29 12:00:00 14.7 10 Norte 26 Norte 0 -- -- 63
2020-08-29 11:00:00 14 8 Noroeste 21 Nordeste 0 -- -- 67
2020-08-29 10:00:00 11.6 9 Noroeste 14 Noroeste 0 -- -- 77
2020-08-29 09:00:00 6.8 2 Sudeste 10 Este 0 -- -- 97
2020-08-29 08:00:00 3.8 3 Este 14 Este 0 -- -- 96
2020-08-29 07:00:00 4.1 2 Este 10 Este 0 -- -- 95
2020-08-29 06:00:00 4.6 5 Este 12 Este 0 -- -- 95
2020-08-29 05:00:00 5.1 9 Este 14 Este 0 -- -- 94
2020-08-29 04:00:00 5.9 4 Este 8 Sudeste 0 -- -- 94
2020-08-29 03:00:00 6.5 6 Este 13 Este 0 -- -- 93
2020-08-29 02:00:00 7.8 2 Este 6 Sudeste 0 -- -- 89
2020-08-29 01:00:00 9.3 5 Sur 15 Sudeste 0 -- -- 86
2020-08-29 00:00:00 10.5 8 Sur 22 Sur 0 -- -- 83
2020-08-28 23:00:00 11.4 12 Sur 23 Sur 0 -- -- 81
2020-08-28 22:00:00 11.8 9 Sudeste 27 Sudeste 0 -- -- 82
2020-08-28 21:00:00 12.4 15 Sur 32 Este 0 -- -- 84
2020-08-28 20:00:00 13.6 15 Sur 30 Sur 0 -- -- 78
2020-08-28 19:00:00 14.3 13 Sudeste 30 Sudeste 0 -- -- 77
2020-08-28 18:00:00 15.3 12 Sudeste 38 Sur 0 -- -- 73
2020-08-28 17:00:00 17.5 19 Sur 45 Sur 0 -- -- 67
2020-08-28 16:00:00 18.1 20 Sur 40 Sur 0 -- -- 65
2020-08-28 15:00:00 17.6 19 Sur 41 Sudeste 0 -- -- 67
2020-08-28 14:00:00 18 20 Sur 37 Sur 0 -- -- 69
2020-08-28 13:00:00 17.2 17 Sur 33 Sudeste 0 -- -- 70
2020-08-28 12:00:00 16.3 18 Sur 31 Sudeste 0 -- -- 73
2020-08-28 11:00:00 15.1 18 Sur 30 Sur 0 -- -- 81
2020-08-28 10:00:00 14.4 11 Sur 29 Sur 0 -- -- 87
2020-08-28 09:00:00 14.3 14 Sur 24 Sur 0 -- -- 90
2020-08-28 08:00:00 14.6 13 Sur 28 Sur 0 -- -- 91
2020-08-28 07:00:00 15.7 10 Sur 19 Sur 0 -- -- 90
2020-08-28 06:00:00 16.5 12 Sudeste 23 Sudeste 0 -- -- 90
2020-08-28 05:00:00 16.9 6 Sur 15 Sur 0 -- -- 91
2020-08-28 04:00:00 17.1 8 Sudeste 15 Sudoeste 0 -- -- 90
2020-08-28 03:00:00 17.2 7 Sur 18 Sudeste 0 -- -- 91
2020-08-28 02:00:00 17.3 8 Sur 18 Sudeste 0 -- -- 92
2020-08-28 01:00:00 17.4 9 Sur 18 Sudeste 0 -- -- 91
2020-08-28 00:00:00 17.2 10 Sur 24 Sudeste 0 -- -- 92
2020-08-27 23:00:00 17.2 10 Sur 29 Sur 0 -- -- 92
2020-08-27 22:00:00 17.2 17 Sur 34 Sur 0 -- -- 92
2020-08-27 21:00:00 17.8 19 Sur 36 Sudeste 0 -- -- 91
2020-08-27 20:00:00 19.4 17 Sur 34 Sur 0 -- -- 86
2020-08-27 19:00:00 21.9 20 Sur 40 Sudeste 0 -- -- 77
2020-08-27 18:00:00 25.5 23 Sur 36 Sudeste 0 -- -- 64
2020-08-27 17:00:00 29.2 6 Sur 20 Oeste 0 -- -- 50
2020-08-27 16:00:00 29.6 9 Oeste 20 Oeste 0 -- -- 34
2020-08-27 15:00:00 28.3 6 Nordeste 18 Nordeste 0 -- -- 46
2020-08-27 14:00:00 26.6 6 Oeste 18 Sudoeste 0 -- -- 57
2020-08-27 13:00:00 25.1 8 Noroeste 15 Noroeste 0 -- -- 60
2020-08-27 12:00:00 22.2 3 Noroeste 12 Sudoeste 0 -- -- 74
2020-08-27 11:00:00 19.4 4 Noroeste 9 Noroeste 0 -- -- 86
2020-08-27 10:00:00 16.1 3 Noroeste 6 Norte 0 -- -- 98
2020-08-27 09:00:00 14.7 3 Sudeste 6 Este 0 -- -- 99
2020-08-27 08:00:00 14.7 3 Sudeste 10 Sudeste 0 -- -- 98
2020-08-27 07:00:00 15.5 2 Sudeste 6 Este 0 -- -- 98
2020-08-27 06:00:00 15.8 2 Sudeste 9 Sur 0 -- -- 98
2020-08-27 05:00:00 15.9 3 Sudeste 6 Este 0 -- -- 98
2020-08-27 04:00:00 16.1 2 Este 8 Este 0 -- -- 98
2020-08-27 03:00:00 16.5 5 Sudeste 12 Sur 0 -- -- 97
2020-08-27 02:00:00 16.9 4 Sur 11 Sudeste 0 -- -- 96
2020-08-27 01:00:00 17.2 5 Sudeste 13 Sudeste 0 -- -- 93
2020-08-27 00:00:00 18 9 Sur 22 Sur 0 -- -- 94
2020-08-26 23:00:00 18.3 10 Sur 22 Sur 0 -- -- 93
2020-08-26 22:00:00 18.8 6 Sudeste 30 Sur 0 -- -- 90
2020-08-26 21:00:00 20.4 14 Sudeste 28 Sur 0 -- -- 83
2020-08-26 20:00:00 23.8 16 Sur 29 Sudeste 0 -- -- 69
2020-08-26 19:00:00 26.6 19 Sur 28 Sudeste 0 -- -- 60
2020-08-26 18:00:00 28 12 Sur 28 Sudeste 0 -- -- 51
2020-08-26 17:00:00 28.5 8 Sudeste 25 Sur 0 -- -- 48
2020-08-26 16:00:00 27.7 10 Sur 27 Sudeste 0 -- -- 45
2020-08-26 15:00:00 27.2 6 Sudeste 17 Sur 0 -- -- 50
2020-08-26 14:00:00 25.4 8 Sudoeste 14 Sur 0 -- -- 52
2020-08-26 13:00:00 22.8 6 Sudoeste 17 Sudoeste 0 -- -- 63
2020-08-26 12:00:00 20.4 6 Sur 21 Sur 0 -- -- 72
2020-08-26 11:00:00 18.2 11 Sur 23 Sur 0 -- -- 82
2020-08-26 10:00:00 16.3 9 Sur 22 Sur 0 -- -- 88
2020-08-26 09:00:00 14.9 7 Sur 19 Sur 0 -- -- 94
2020-08-26 08:00:00 12.5 3 Sudeste 11 Este 0 -- -- 97
2020-08-26 07:00:00 11.6 3 Este 13 Este 0 -- -- 97
2020-08-26 06:00:00 11.4 10 Este 13 Este 0 -- -- 95
2020-08-26 05:00:00 12.2 8 Este 14 Este 0 -- -- 96
2020-08-26 04:00:00 12.8 0 Calma 7 Este 0 -- -- 91
2020-08-26 03:00:00 14.1 3 Sudeste 8 Sur 0 -- -- 92
2020-08-26 02:00:00 15.3 2 Sur 12 Sur 0 -- -- 92
2020-08-26 01:00:00 15.4 5 Sudeste 18 Sur 0 -- -- 91
2020-08-26 00:00:00 15.9 10 Sur 27 Sur 0 -- -- 88
2020-08-25 23:00:00 16.5 15 Sur 30 Sur 0 -- -- 88
2020-08-25 22:00:00 17 15 Sur 29 Sur 0 -- -- 83
2020-08-25 21:00:00 18.3 15 Sur 35 Sur 0 -- -- 77
2020-08-25 20:00:00 21.7 18 Sur 42 Sur 0 -- -- 66
2020-08-25 19:00:00 24.3 23 Sur 40 Sur 0 -- -- 56
2020-08-25 18:00:00 30.3 10 Oeste 27 Sur 0 -- -- 40
2020-08-25 17:00:00 30.8 10 Norte 26 Oeste 0 -- -- 25
2020-08-25 16:00:00 30.5 11 Norte 24 Norte 0 -- -- 25
2020-08-25 15:00:00 29.7 13 Norte 26 Norte 0 -- -- 27
2020-08-25 14:00:00 28.3 13 Norte 24 Norte 0 -- -- 33
2020-08-25 13:00:00 26.4 10 Noroeste 25 Noroeste 0 -- -- 43
2020-08-25 12:00:00 24.3 7 Noroeste 17 Norte 0 -- -- 48
2020-08-25 11:00:00 20.9 5 Sudoeste 12 Oeste 0 -- -- 58
2020-08-25 10:00:00 16.9 4 Noroeste 10 Este 0 -- -- 77
2020-08-25 09:00:00 11.8 3 Sudeste 13 Este 0 -- -- 93
2020-08-25 08:00:00 8.6 0 Calma 5 Este 0 -- -- 95
2020-08-25 07:00:00 9.3 5 Este 11 Este 0 -- -- 95
2020-08-25 06:00:00 9.6 5 Este 10 Este 0 -- -- 94
2020-08-25 05:00:00 9.9 0 Calma 4 Sudeste 0 -- -- 94
2020-08-25 04:00:00 10.4 0 Calma 5 Sudeste 0 -- -- 91
2020-08-25 03:00:00 11.2 2 Norte 14 Este 0 -- -- 90
2020-08-25 02:00:00 12.2 0 Calma 6 Este 0 -- -- 88
2020-08-25 01:00:00 13.3 4 Nordeste 15 Este 0 -- -- 85
2020-08-25 00:00:00 14 0 Calma 8 Este 0 -- -- 82
2020-08-24 23:00:00 15.6 0 Calma 8 Este 0 -- -- 76
2020-08-24 22:00:00 17.7 0 Calma 3 Noroeste 0 -- -- 72
2020-08-24 21:00:00 21.1 0 Calma 9 Norte 0 -- -- 63
2020-08-24 20:00:00 25.6 5 Noroeste 13 Norte 0 -- -- 41
2020-08-24 19:00:00 26.3 6 Norte 15 Norte 0 -- -- 41
2020-08-24 18:00:00 26.4 5 Norte 15 Noroeste 0 -- -- 41
2020-08-24 17:00:00 25.9 4 Noroeste 15 Norte 0 -- -- 39
2020-08-24 16:00:00 24.9 5 Norte 13 Norte 0 -- -- 42
2020-08-24 15:00:00 23.3 3 Sudeste 17 Oeste 0 -- -- 46
2020-08-24 14:00:00 21.5 6 Sur 18 Sudeste 0 -- -- 57
2020-08-24 13:00:00 19.8 5 Sudeste 21 Sur 0 -- -- 62
2020-08-24 12:00:00 18 9 Sur 22 Sudeste 0 -- -- 68
2020-08-24 11:00:00 16.5 10 Sur 24 Sudoeste 0 -- -- 74
2020-08-24 10:00:00 14.6 11 Sur 18 Sur 0 -- -- 82
2020-08-24 09:00:00 13.7 6 Sur 15 Sur 0 -- -- 88
2020-08-24 08:00:00 13.5 3 Sur 9 Sur 0 -- -- 89
2020-08-24 07:00:00 13.4 5 Sudeste 13 Sur 0 -- -- 89
2020-08-24 06:00:00 13.5 6 Sudeste 15 Sur 0 -- -- 87
2020-08-24 05:00:00 13.5 8 Sur 20 Sur 0 -- -- 87
2020-08-24 04:00:00 13.6 9 Sudeste 24 Sudeste 0 -- -- 86
2020-08-24 03:00:00 13.8 13 Sur 23 Sudeste 0 -- -- 89
2020-08-24 02:00:00 14 12 Sur 25 Sur 0 -- -- 92
2020-08-24 01:00:00 13.9 12 Sur 28 Sur 0 -- -- 93
2020-08-24 00:00:00 13.9 13 Sur 23 Sur 0 -- -- 93
2020-08-23 23:00:00 14.2 13 Sur 24 Sur 0 -- -- 91
2020-08-23 22:00:00 14.5 15 Sur 30 Sur 0 -- -- 89
2020-08-23 21:00:00 15.7 15 Sur 28 Sur 0 -- -- 85
2020-08-23 20:00:00 18 17 Sur 30 Sur 0 -- -- 77
2020-08-23 19:00:00 19.9 15 Sur 31 Sur 0 -- -- 68
2020-08-23 18:00:00 21.3 17 Sur 30 Sur 0 -- -- 60
2020-08-23 17:00:00 22.4 14 Sudeste 30 Sur 0 -- -- 56
2020-08-23 16:00:00 22.1 15 Sudeste 30 Sur 0 -- -- 58
2020-08-23 15:00:00 21.9 12 Sur 28 Sudeste 0 -- -- 51
2020-08-23 14:00:00 20.8 11 Sur 25 Sudoeste 0 -- -- 55
2020-08-23 13:00:00 19.5 9 Sur 28 Sur 0 -- -- 60
2020-08-23 12:00:00 17.6 9 Sur 27 Sur 0 -- -- 69
2020-08-23 11:00:00 16.2 12 Sur 24 Sudeste 0 -- -- 74
2020-08-23 10:00:00 14.7 10 Sur 17 Sur 0 -- -- 83
2020-08-23 09:00:00 10.9 0 Calma 4 Sudeste 0 -- -- 97
2020-08-23 08:00:00 8.3 0 Calma 3 Oeste 0 -- -- 96
2020-08-23 07:00:00 9 5 Este 9 Este 0 -- -- 96
2020-08-23 06:00:00 9.5 0 Calma 8 Sudeste 0 -- -- 95
2020-08-23 05:00:00 10.2 6 Sudeste 12 Sudeste 0 -- -- 96
2020-08-23 04:00:00 10.5 8 Sudeste 14 Sudeste 0 -- -- 96
2020-08-23 03:00:00 11.2 5 Sudeste 14 Sur 0 -- -- 94
2020-08-23 02:00:00 11.7 6 Sudeste 13 Sur 0 -- -- 91
2020-08-23 01:00:00 12.3 5 Sudeste 16 Sudeste 0 -- -- 92
2020-08-23 00:00:00 12.7 7 Sudeste 20 Sudeste 0 -- -- 93
2020-08-22 23:00:00 13.2 12 Sur 29 Sur 0 -- -- 93
2020-08-22 22:00:00 13.7 14 Sur 28 Sudeste 0 -- -- 92
2020-08-22 21:00:00 14.5 13 Sur 39 Sur 0 -- -- 88
2020-08-22 20:00:00 16.3 23 Sur 39 Sur 0 -- -- 82
2020-08-22 19:00:00 19.3 23 Sur 37 Sur 0 -- -- 72
2020-08-22 18:00:00 22.2 16 Sur 28 Sur 0 -- -- 61
2020-08-22 17:00:00 23.4 14 Sudeste 26 Sur 0 -- -- 55
2020-08-22 16:00:00 23.4 5 Nordeste 30 Noroeste 0 -- -- 46
2020-08-22 15:00:00 22.6 6 Sudoeste 14 Oeste 0 -- -- 48
2020-08-22 14:00:00 21.2 4 Este 14 Sudoeste 0 -- -- 56
2020-08-22 13:00:00 19.3 3 Norte 10 Sur 0 -- -- 64
2020-08-22 12:00:00 17.2 3 Sur 10 Sudoeste 0 -- -- 79
2020-08-22 11:00:00 15.7 3 Sur 7 Sur 0 -- -- 88
2020-08-22 10:00:00 13.1 3 Sudeste 13 Este 0 -- -- 96
2020-08-22 09:00:00 11.2 8 Este 12 Este 0 -- -- 99
2020-08-22 08:00:00 10.5 7 Este 13 Sudeste 0 -- -- 99
2020-08-22 07:00:00 10.5 9 Este 12 Este 0 -- -- 98
2020-08-22 06:00:00 10.9 7 Este 15 Este 0 -- -- 98
2020-08-22 05:00:00 9.8 8 Este 15 Este 0 -- -- 97
2020-08-22 04:00:00 9.8 7 Este 15 Este 0 -- -- 95
2020-08-22 03:00:00 11.3 8 Este 12 Este 0 -- -- 94
2020-08-22 02:00:00 12.4 4 Sudeste 9 Sur 0 -- -- 95
2020-08-22 01:00:00 12.8 5 Sudeste 14 Sur 0 -- -- 94
2020-08-22 00:00:00 13.5 6 Sudeste 18 Sudeste 0 -- -- 93
2020-08-21 23:00:00 14.2 6 Sur 19 Sur 0 -- -- 92
2020-08-21 22:00:00 15.1 9 Sur 24 Sudeste 0 -- -- 87
2020-08-21 21:00:00 17.4 9 Sudeste 22 Sudeste 0 -- -- 76
2020-08-21 20:00:00 22.1 8 Norte 21 Norte 0 -- -- 40
2020-08-21 19:00:00 23.2 11 Norte 26 Noroeste 0 -- -- 45
2020-08-21 18:00:00 23.4 12 Noroeste 26 Norte 0 -- -- 53
2020-08-21 17:00:00 23.4 13 Norte 35 Norte 0 -- -- 54
2020-08-21 16:00:00 22.8 16 Norte 31 Norte 0 -- -- 63
2020-08-21 15:00:00 21.1 12 Oeste 26 Noroeste 0 -- -- 72
2020-08-21 14:00:00 20 12 Norte 27 Norte 0 -- -- 75
2020-08-21 13:00:00 19.1 10 Norte 27 Noroeste 0 -- -- 79
2020-08-21 12:00:00 19.2 13 Norte 22 Norte 0 -- -- 82
2020-08-21 11:00:00 17.4 8 Norte 15 Noroeste 0 -- -- 89
2020-08-21 10:00:00 16.9 7 Noroeste 14 Noroeste 0 -- -- 91
2020-08-21 09:00:00 16.5 4 Noroeste 10 Norte 0 -- -- 93
2020-08-21 08:00:00 15.9 5 Noroeste 10 Norte 0 -- -- 94
2020-08-21 07:00:00 15.9 5 Noroeste 10 Norte 0 -- -- 94
2020-08-21 06:00:00 15.9 4 Norte 7 Oeste 0 -- -- 94
2020-08-21 05:00:00 16 2 Oeste 8 Sudoeste 0 -- -- 93
2020-08-21 04:00:00 16.1 0 Calma 6 Noroeste 0 -- -- 94
2020-08-21 03:00:00 16.2 3 Oeste 10 Noroeste 0 -- -- 95
2020-08-21 02:00:00 16.1 2 Sudoeste 8 Sudoeste 0.8 -- -- 95
2020-08-21 01:00:00 16 5 Oeste 10 Noroeste 0.6 -- -- 94
2020-08-21 00:00:00 15.9 3 Sudoeste 24 Nordeste 0.6 -- -- 94